Gregoria Perez de Denis, Argentina
Current Conditions -  °F | °C
As of 5:00 AM on Saturday 20 Dec 2014 (Local Time) from SARE Reporting Station
Clear Clear  
Wind Chill: 77°   Ceiling: Unl
Heat Index: 78°   Visibility: 6mi
Dew Point: 72°   Wind: 7mph
Humidity: 83%   Direction: 70°ENE
Pressure: 29.56"   Gusts: NA
Location:  28.43°S, 61.58°W
Report Text: SARE 200800Z 07006KT CAVOK 25/22 Q1001
Loading
Personal Weather Stations






























Interactive Weather Map New forecast layout! Learn more

10-Day Weather Forecast

Advertisements
Track Severe Weather on mobile